Aérodrome :
LOGIN :

S'inscrire | Disclaimer

   EN    FR    IT 

 










Légende :    VFR   VFR Marginal   IFR   IFR Intensif   IFR Très Intensif
Visi : 
Plafond : 
>= 8 km
>= 3000ft
5 à 8 km
1000 à 3000 ft
1500m à 5 km
500 à 1000 ft
800 à 1500m
200 à 500 ft
< 800m
< 200 ft
Symboles :   Orages  Brouillard  Fortes neiges  Fortes précipitations  Vent > 20 kt
SIGMETs :   Divers  Orages  Givrage  Turbulence  Onde Orograph.  Cendres Volcan.







- Altitude de l'aérodrome : 782 ft
- Code IATA : BGY


LIME - Orio al Serio International - Bergamo

DERNIER METAR :
  • 192020Z 06003KT 360V090 9999 FEW080 14/10 Q1013 NOSIG

METARs EXPIRÉS :
  • 191950Z 08003KT 360V100 9999 FEW080 14/10 Q1013 NOSIG
  • 191920Z 09004KT 9999 FEW080 14/11 Q1013 NOSIG
  • 191850Z 13007KT 110V170 9999 FEW080 14/11 Q1012 NOSIG
  • 191820Z 13010KT 110V170 9999 FEW080 15/11 Q1012 NOSIG
  • 191750Z 17003KT 150V210 9999 FEW080 17/10 Q1012 NOSIG

TAF TAF LIME
Valide du 19 à 18h jusqu'au 20 à 18h UTC


191700Z 1918/2018 01007KT 9999 SCT040 SCT070
Pas de NOTAMs connus pour ce terrain.
2 SIGMETs publiés pour la FIR Milano (LIMM) :
 
Turbulence forte
LIMM SIGMET 12 VALID 192000/200000 LIMM
LIMM MILANO FIR SEV TURB FCST WI N4553 E00741 - N4333 E00816 - N4309 E00945 - N4346 E01124 - N4641 E01027 - N4626 E00821 - N4557 E00740 - N4553 E00741 FL240/390 MOV E NC=
Orages noyés dans la masse
LIMM SIGMET 11 VALID 192000/192200 LIMM
LIMM MILANO FIR EMBD TS OBS WI N4310 E00944 - N4441 E00931 - N4344 E01115 - N4311 E00948 - N4310 E00944 TOP FL400 MOV SE NC=



MET'MAP, la Météo Aéronautique d'un coup d'oeil ! - Copyright ORBIFLY Décembre 2007 - Disclaimer

ORBIFLY MET'MAP TEAM :

Programmation & Développement : Alexandra Zaïnal
Conception & Développement : Baudouin d'Aumeries
Co-Programmation & Développement : Marc-Olivier Méhu
Soutien technique & logistique : Manuel Goepfert

Contact : metmap@orbifly.com




SOURCES & CREDITS :

   NOAA